Paula Anna — 5BRM4 — position and weather

sailwx.info

Track history (hours):
 
Tides and Currents Weather Stations Pressure Air Temp Water Temp Dewpoint Dewpoint Depression Visibility Wind Speed Wind Dir Waves Ship Positions

Paula Anna

Last reported at 2017-Oct-17 11:50 UTC. Time now 2017-Oct-19 09:29 UTC.
Position N 57°17' E 010°42'.

Length 107 m; draft 5.1 m.

Type: Cargo ship. MMSI: 212211000.

Date/timePositionNaut miles runAvg speedWind from/ knotsBaromVisibWave heightAir tempDewpointWater temp
2017-Oct-17 11:50N 57°17' E 010°42'3 9.3
2017-Oct-17 11:30N 57°20' E 010°42'5 9.4
2017-Oct-17 11:00N 57°24' E 010°43'5 9.6
2017-Oct-17 10:30N 57°29' E 010°43'5 9.6
2017-Oct-17 10:00N 57°34' E 010°44'5 9.6
2017-Oct-17 09:29N 57°39' E 010°45'5 9.3
2017-Oct-17 08:59N 57°44' E 010°46'4 7.5
2017-Oct-17 08:30N 57°47' E 010°42'510.6
2017-Oct-17 08:00N 57°46' E 010°32'510.3
2017-Oct-17 07:30N 57°45' E 010°23'45 9.6
2017-Oct-17 02:46N 57°24' E 009°08'3 9.6
2017-Oct-17 02:29N 57°22' E 009°04'5 9.7
2017-Oct-17 02:00N 57°20' E 008°57'5 9.7
2017-Oct-17 01:28N 57°17' E 008°48'5 9.5
2017-Oct-17 00:54N 57°15' E 008°40'97 9.6
2017-Oct-16 14:46N 55°55' E 007°01'410.5
2017-Oct-16 14:24N 55°51' E 006°57'3210.5
2017-Oct-16 11:20N 55°23' E 006°28'410.5
2017-Oct-16 10:57N 55°20' E 006°24'510.5
2017-Oct-16 10:30N 55°16' E 006°20'510.7
2017-Oct-16 10:00N 55°11' E 006°15'510.6
2017-Oct-16 09:29N 55°07' E 006°10'510.5
2017-Oct-16 08:59N 55°02' E 006°06'11410.4
2017-Oct-15 22:00N 53°20' E 004°38'5 9.7
2017-Oct-15 21:29N 53°16' E 004°35'10 9.4
2017-Oct-15 20:23N 53°07' E 004°26'4 9.3
2017-Oct-15 20:00N 53°03' E 004°24'5 9.3
2017-Oct-15 19:31N 52°59' E 004°20'5 9.3
2017-Oct-15 19:00N 52°55' E 004°17'5 9.3
2017-Oct-15 18:31N 52°51' E 004°13'5 9.2
2017-Oct-15 18:00N 52°47' E 004°08'5 9.2
2017-Oct-15 17:30N 52°44' E 004°03'5 9.3
2017-Oct-15 17:00N 52°40' E 003°58'5 9.4
2017-Oct-15 16:30N 52°37' E 003°53'5 9.6
2017-Oct-15 15:59N 52°33' E 003°47'5 9.9
2017-Oct-15 15:29N 52°30' E 003°41'510.1
2017-Oct-15 15:00N 52°26' E 003°36'1010.5
2017-Oct-15 14:00N 52°19' E 003°24'510.8
2017-Oct-15 13:30N 52°15' E 003°18'611.0
2017-Oct-15 13:00N 52°11' E 003°12'611.1
2017-Oct-15 12:30N 52°07' E 003°06'1111.4
2017-Oct-15 11:30N 51°58' E 002°54'711.6
2017-Oct-15 10:51N 51°52' E 002°46'411.7
2017-Oct-15 10:30N 51°49' E 002°42'1211.8
2017-Oct-15 09:30N 51°40' E 002°30'611.8
2017-Oct-15 09:00N 51°35' E 002°24'611.7
2017-Oct-15 08:30N 51°31' E 002°18'611.2
2017-Oct-15 08:00N 51°26' E 002°13'611.1
2017-Oct-15 07:30N 51°21' E 002°09'510.9
2017-Oct-15 07:00N 51°16' E 002°05'510.5
2017-Oct-15 06:30N 51°12' E 001°59'510.1
2017-Oct-15 06:00N 51°09' E 001°53'5 9.5
2017-Oct-15 05:30N 51°07' E 001°46'5 9.3
2017-Oct-15 05:00N 51°04' E 001°41'4 8.7
2017-Oct-15 04:30N 51°00' E 001°36'4 8.3
2017-Oct-15 04:00N 50°57' E 001°32'4 8.0
2017-Oct-15 03:30N 50°55' E 001°27'4 7.5
2017-Oct-15 03:00N 50°51' E 001°26'4 7.8
2017-Oct-15 02:30N 50°47' E 001°24'4 8.2
2017-Oct-15 02:00N 50°43' E 001°23'4 8.1
2017-Oct-15 01:30N 50°40' E 001°19'4 8.8
2017-Oct-15 01:00N 50°37' E 001°14'5 9.0
2017-Oct-15 00:30N 50°34' E 001°08'4 9.1
2017-Oct-15 00:00N 50°31' E 001°02'4 8.9
2017-Oct-14 23:30N 50°29' E 000°57'5 9.1
2017-Oct-14 23:00N 50°28' E 000°50'6 9.2
2017-Oct-14 22:18N 50°26' E 000°40'3 9.2
2017-Oct-14 21:57N 50°25' E 000°35'4 9.2
2017-Oct-14 21:30N 50°24' E 000°29'5 9.2
2017-Oct-14 21:00N 50°23' E 000°22'5 9.3
2017-Oct-14 20:30N 50°22' E 000°15'5 9.4
2017-Oct-14 20:00N 50°20' E 000°08'5 9.7
2017-Oct-14 19:30N 50°19' E 000°01'5 9.9
2017-Oct-14 19:00N 50°18' W 000°07'510.1
2017-Oct-14 18:30N 50°17' W 000°15'510.6
2017-Oct-14 18:00N 50°15' W 000°23'510.9
2017-Oct-14 17:30N 50°14' W 000°31'611.3
2017-Oct-14 17:00N 50°12' W 000°39'611.7
2017-Oct-14 16:30N 50°11' W 000°48'611.9
2017-Oct-14 16:00N 50°09' W 000°57'612.1
2017-Oct-14 15:30N 50°07' W 001°06'612.3
2017-Oct-14 15:00N 50°05' W 001°15'612.3
2017-Oct-14 14:30N 50°04' W 001°24'611.9
2017-Oct-14 14:00N 50°02' W 001°33'611.7
2017-Oct-14 13:30N 50°01' W 001°42'611.3
2017-Oct-14 13:00N 49°59' W 001°51'1110.6
2017-Oct-14 11:58N 49°56' W 002°07'6 9.6
2017-Oct-14 11:17N 49°54' W 002°17'4 9.0
2017-Oct-14 10:52N 49°53' W 002°22'4 8.9
2017-Oct-14 10:28N 49°52' W 002°28'4 8.6
2017-Oct-14 09:58N 49°51' W 002°34'5 8.5
2017-Oct-14 09:22N 49°50' W 002°42'3 8.6
2017-Oct-14 09:00N 49°49' W 002°46'4 8.6
2017-Oct-14 08:30N 49°47' W 002°53'5 8.7
2017-Oct-14 07:55N 49°45' W 002°59'4 8.9
2017-Oct-14 07:30N 49°43' W 003°04'4 9.1
2017-Oct-14 07:00N 49°40' W 003°10'5 9.1
2017-Oct-14 06:30N 49°38' W 003°17'5 9.3
2017-Oct-14 06:00N 49°36' W 003°23'5 9.6
2017-Oct-14 05:30N 49°34' W 003°29'5 9.6
2017-Oct-14 05:00N 49°31' W 003°36'5 9.6
2017-Oct-14 04:30N 49°29' W 003°42'5 9.8
2017-Oct-14 03:58N 49°26' W 003°49'6 9.8
2017-Oct-14 03:21N 49°23' W 003°57'4 9.9
2017-Oct-14 02:59N 49°21' W 004°02'510.0
2017-Oct-14 02:29N 49°19' W 004°09'610.1
2017-Oct-14 01:54N 49°16' W 004°16'2710.4
2017-Oct-13 23:17N 49°02' W 004°53'310.8
2017-Oct-13 22:58N 49°00' W 004°57'510.8
2017-Oct-13 22:29N 48°57' W 005°04'810.5
2017-Oct-13 21:45N 48°54' W 005°14'1010.6
2017-Oct-13 20:49N 48°49' W 005°27'  
2017-Oct-11 00:00N 38°28' W 009°46'5 9.8
2017-Oct-10 23:30N 38°23' W 009°45'5 9.5
2017-Oct-10 23:00N 38°18' W 009°44'5 9.8
2017-Oct-10 22:30N 38°14' W 009°43'510.3
2017-Oct-10 22:00N 38°09' W 009°41'510.2
2017-Oct-10 21:30N 38°04' W 009°40'510.2
2017-Oct-10 21:00N 37°59' W 009°38'510.0
2017-Oct-10 20:30N 37°54' W 009°37'510.1
2017-Oct-10 20:00N 37°49' W 009°36'510.1
2017-Oct-10 19:30N 37°44' W 009°35'510.6
2017-Oct-10 19:00N 37°39' W 009°33'510.5
2017-Oct-10 18:30N 37°34' W 009°31'510.1
2017-Oct-10 18:00N 37°29' W 009°30'510.1
2017-Oct-10 17:30N 37°24' W 009°28'510.1
2017-Oct-10 17:00N 37°19' W 009°27'510.2
2017-Oct-10 16:30N 37°14' W 009°26'510.4
2017-Oct-10 16:00N 37°09' W 009°25'5 9.9
2017-Oct-10 15:30N 37°04' W 009°23'5 9.6
2017-Oct-10 15:00N 36°59' W 009°22'9 8.8
2017-Oct-10 14:00N 36°51' W 009°17'5 9.7
2017-Oct-10 13:30N 36°48' W 009°13'5 9.5
2017-Oct-10 13:00N 36°45' W 009°09'610.1
2017-Oct-10 12:26N 36°43' W 009°02'410.0
2017-Oct-10 12:00N 36°41' W 008°57'610.5
2017-Oct-10 11:28N 36°40' W 008°50'510.5
2017-Oct-10 10:58N 36°38' W 008°44'710.5
2017-Oct-10 10:19N 36°36' W 008°36'310.8
2017-Oct-10 10:00N 36°35' W 008°32'510.4
2017-Oct-10 09:29N 36°33' W 008°26'610.6
2017-Oct-10 08:55N 36°31' W 008°18'810.5
2017-Oct-10 08:11N 36°29' W 008°09'310.5
2017-Oct-10 07:52N 36°28' W 008°05'410.5
2017-Oct-10 07:30N 36°27' W 008°01'510.6
2017-Oct-10 07:00N 36°25' W 007°54'610.3
2017-Oct-10 06:26N 36°23' W 007°48'510.4
2017-Oct-10 06:00N 36°22' W 007°42'510.1
2017-Oct-10 05:29N 36°20' W 007°36'610.2
2017-Oct-10 04:56N 36°18' W 007°30'410.0
2017-Oct-10 04:30N 36°17' W 007°25'510.5
2017-Oct-10 04:00N 36°15' W 007°19'710.5
2017-Oct-10 03:21N 36°13' W 007°10'307 9.2
2017-Oct-08 17:53N 36°36' W 000°50'410.3
2017-Oct-08 17:28N 36°36' W 000°44'510.5
2017-Oct-08 16:59N 36°37' W 000°38'  
Track history (hours):
 
Tides and Currents Weather Stations Pressure Air Temp Water Temp Dewpoint Dewpoint Depression Visibility Wind Speed Wind Dir Waves Ship Positions

Paula Anna

Last reported at 2017-Oct-17 11:50 UTC. Time now 2017-Oct-19 09:29 UTC.
Position N 57°17' E 010°42'.

Length 107 m; draft 5.1 m.

Type: Cargo ship. MMSI: 212211000.

Date/timePositionNaut miles runAvg speedWind from/ knotsBaromVisibWave heightAir tempDewpointWater temp
2017-Oct-17 11:50N 57°17' E 010°42'3 9.3
2017-Oct-17 11:30N 57°20' E 010°42'5 9.4
2017-Oct-17 11:00N 57°24' E 010°43'5 9.6
2017-Oct-17 10:30N 57°29' E 010°43'5 9.6
2017-Oct-17 10:00N 57°34' E 010°44'5 9.6
2017-Oct-17 09:29N 57°39' E 010°45'5 9.3
2017-Oct-17 08:59N 57°44' E 010°46'4 7.5
2017-Oct-17 08:30N 57°47' E 010°42'510.6
2017-Oct-17 08:00N 57°46' E 010°32'510.3
2017-Oct-17 07:30N 57°45' E 010°23'45 9.6
2017-Oct-17 02:46N 57°24' E 009°08'3 9.6
2017-Oct-17 02:29N 57°22' E 009°04'5 9.7
2017-Oct-17 02:00N 57°20' E 008°57'5 9.7
2017-Oct-17 01:28N 57°17' E 008°48'5 9.5
2017-Oct-17 00:54N 57°15' E 008°40'97 9.6
2017-Oct-16 14:46N 55°55' E 007°01'410.5
2017-Oct-16 14:24N 55°51' E 006°57'3210.5
2017-Oct-16 11:20N 55°23' E 006°28'410.5
2017-Oct-16 10:57N 55°20' E 006°24'510.5
2017-Oct-16 10:30N 55°16' E 006°20'510.7
2017-Oct-16 10:00N 55°11' E 006°15'510.6
2017-Oct-16 09:29N 55°07' E 006°10'510.5
2017-Oct-16 08:59N 55°02' E 006°06'11410.4
2017-Oct-15 22:00N 53°20' E 004°38'5 9.7
2017-Oct-15 21:29N 53°16' E 004°35'10 9.4
2017-Oct-15 20:23N 53°07' E 004°26'4 9.3
2017-Oct-15 20:00N 53°03' E 004°24'5 9.3
2017-Oct-15 19:31N 52°59' E 004°20'5 9.3
2017-Oct-15 19:00N 52°55' E 004°17'5 9.3
2017-Oct-15 18:31N 52°51' E 004°13'5 9.2
2017-Oct-15 18:00N 52°47' E 004°08'5 9.2
2017-Oct-15 17:30N 52°44' E 004°03'5 9.3
2017-Oct-15 17:00N 52°40' E 003°58'5 9.4
2017-Oct-15 16:30N 52°37' E 003°53'5 9.6
2017-Oct-15 15:59N 52°33' E 003°47'5 9.9
2017-Oct-15 15:29N 52°30' E 003°41'510.1
2017-Oct-15 15:00N 52°26' E 003°36'1010.5
2017-Oct-15 14:00N 52°19' E 003°24'510.8
2017-Oct-15 13:30N 52°15' E 003°18'611.0
2017-Oct-15 13:00N 52°11' E 003°12'611.1
2017-Oct-15 12:30N 52°07' E 003°06'1111.4
2017-Oct-15 11:30N 51°58' E 002°54'711.6
2017-Oct-15 10:51N 51°52' E 002°46'411.7
2017-Oct-15 10:30N 51°49' E 002°42'1211.8
2017-Oct-15 09:30N 51°40' E 002°30'611.8
2017-Oct-15 09:00N 51°35' E 002°24'611.7
2017-Oct-15 08:30N 51°31' E 002°18'611.2
2017-Oct-15 08:00N 51°26' E 002°13'611.1
2017-Oct-15 07:30N 51°21' E 002°09'510.9
2017-Oct-15 07:00N 51°16' E 002°05'510.5
2017-Oct-15 06:30N 51°12' E 001°59'510.1
2017-Oct-15 06:00N 51°09' E 001°53'5 9.5
2017-Oct-15 05:30N 51°07' E 001°46'5 9.3
2017-Oct-15 05:00N 51°04' E 001°41'4 8.7
2017-Oct-15 04:30N 51°00' E 001°36'4 8.3
2017-Oct-15 04:00N 50°57' E 001°32'4 8.0
2017-Oct-15 03:30N 50°55' E 001°27'4 7.5
2017-Oct-15 03:00N 50°51' E 001°26'4 7.8
2017-Oct-15 02:30N 50°47' E 001°24'4 8.2
2017-Oct-15 02:00N 50°43' E 001°23'4 8.1
2017-Oct-15 01:30N 50°40' E 001°19'4 8.8
2017-Oct-15 01:00N 50°37' E 001°14'5 9.0
2017-Oct-15 00:30N 50°34' E 001°08'4 9.1
2017-Oct-15 00:00N 50°31' E 001°02'4 8.9
2017-Oct-14 23:30N 50°29' E 000°57'5 9.1
2017-Oct-14 23:00N 50°28' E 000°50'6 9.2
2017-Oct-14 22:18N 50°26' E 000°40'3 9.2
2017-Oct-14 21:57N 50°25' E 000°35'4 9.2
2017-Oct-14 21:30N 50°24' E 000°29'5 9.2
2017-Oct-14 21:00N 50°23' E 000°22'5 9.3
2017-Oct-14 20:30N 50°22' E 000°15'5 9.4
2017-Oct-14 20:00N 50°20' E 000°08'5 9.7
2017-Oct-14 19:30N 50°19' E 000°01'5 9.9
2017-Oct-14 19:00N 50°18' W 000°07'510.1
2017-Oct-14 18:30N 50°17' W 000°15'510.6
2017-Oct-14 18:00N 50°15' W 000°23'510.9
2017-Oct-14 17:30N 50°14' W 000°31'611.3
2017-Oct-14 17:00N 50°12' W 000°39'611.7
2017-Oct-14 16:30N 50°11' W 000°48'611.9
2017-Oct-14 16:00N 50°09' W 000°57'612.1
2017-Oct-14 15:30N 50°07' W 001°06'612.3
2017-Oct-14 15:00N 50°05' W 001°15'612.3
2017-Oct-14 14:30N 50°04' W 001°24'611.9
2017-Oct-14 14:00N 50°02' W 001°33'611.7
2017-Oct-14 13:30N 50°01' W 001°42'611.3
2017-Oct-14 13:00N 49°59' W 001°51'1110.6
2017-Oct-14 11:58N 49°56' W 002°07'6 9.6
2017-Oct-14 11:17N 49°54' W 002°17'4 9.0
2017-Oct-14 10:52N 49°53' W 002°22'4 8.9
2017-Oct-14 10:28N 49°52' W 002°28'4 8.6
2017-Oct-14 09:58N 49°51' W 002°34'5 8.5
2017-Oct-14 09:22N 49°50' W 002°42'3 8.6
2017-Oct-14 09:00N 49°49' W 002°46'4 8.6
2017-Oct-14 08:30N 49°47' W 002°53'5 8.7
2017-Oct-14 07:55N 49°45' W 002°59'4 8.9
2017-Oct-14 07:30N 49°43' W 003°04'4 9.1
2017-Oct-14 07:00N 49°40' W 003°10'5 9.1
2017-Oct-14 06:30N 49°38' W 003°17'5 9.3
2017-Oct-14 06:00N 49°36' W 003°23'5 9.6
2017-Oct-14 05:30N 49°34' W 003°29'5 9.6
2017-Oct-14 05:00N 49°31' W 003°36'5 9.6
2017-Oct-14 04:30N 49°29' W 003°42'5 9.8
2017-Oct-14 03:58N 49°26' W 003°49'6 9.8
2017-Oct-14 03:21N 49°23' W 003°57'4 9.9
2017-Oct-14 02:59N 49°21' W 004°02'510.0
2017-Oct-14 02:29N 49°19' W 004°09'610.1
2017-Oct-14 01:54N 49°16' W 004°16'2710.4
2017-Oct-13 23:17N 49°02' W 004°53'310.8
2017-Oct-13 22:58N 49°00' W 004°57'510.8
2017-Oct-13 22:29N 48°57' W 005°04'810.5
2017-Oct-13 21:45N 48°54' W 005°14'1010.6
2017-Oct-13 20:49N 48°49' W 005°27'  
2017-Oct-11 00:00N 38°28' W 009°46'5 9.8
2017-Oct-10 23:30N 38°23' W 009°45'5 9.5
2017-Oct-10 23:00N 38°18' W 009°44'5 9.8
2017-Oct-10 22:30N 38°14' W 009°43'510.3
2017-Oct-10 22:00N 38°09' W 009°41'510.2
2017-Oct-10 21:30N 38°04' W 009°40'510.2
2017-Oct-10 21:00N 37°59' W 009°38'510.0
2017-Oct-10 20:30N 37°54' W 009°37'510.1
2017-Oct-10 20:00N 37°49' W 009°36'510.1
2017-Oct-10 19:30N 37°44' W 009°35'510.6
2017-Oct-10 19:00N 37°39' W 009°33'510.5
2017-Oct-10 18:30N 37°34' W 009°31'510.1
2017-Oct-10 18:00N 37°29' W 009°30'510.1
2017-Oct-10 17:30N 37°24' W 009°28'510.1
2017-Oct-10 17:00N 37°19' W 009°27'510.2
2017-Oct-10 16:30N 37°14' W 009°26'510.4
2017-Oct-10 16:00N 37°09' W 009°25'5 9.9
2017-Oct-10 15:30N 37°04' W 009°23'5 9.6
2017-Oct-10 15:00N 36°59' W 009°22'9 8.8
2017-Oct-10 14:00N 36°51' W 009°17'5 9.7
2017-Oct-10 13:30N 36°48' W 009°13'5 9.5
2017-Oct-10 13:00N 36°45' W 009°09'610.1
2017-Oct-10 12:26N 36°43' W 009°02'410.0
2017-Oct-10 12:00N 36°41' W 008°57'610.5
2017-Oct-10 11:28N 36°40' W 008°50'510.5
2017-Oct-10 10:58N 36°38' W 008°44'710.5
2017-Oct-10 10:19N 36°36' W 008°36'310.8
2017-Oct-10 10:00N 36°35' W 008°32'510.4
2017-Oct-10 09:29N 36°33' W 008°26'610.6
2017-Oct-10 08:55N 36°31' W 008°18'810.5
2017-Oct-10 08:11N 36°29' W 008°09'310.5
2017-Oct-10 07:52N 36°28' W 008°05'410.5
2017-Oct-10 07:30N 36°27' W 008°01'510.6
2017-Oct-10 07:00N 36°25' W 007°54'610.3
2017-Oct-10 06:26N 36°23' W 007°48'510.4
2017-Oct-10 06:00N 36°22' W 007°42'510.1
2017-Oct-10 05:29N 36°20' W 007°36'610.2
2017-Oct-10 04:56N 36°18' W 007°30'410.0
2017-Oct-10 04:30N 36°17' W 007°25'510.5
2017-Oct-10 04:00N 36°15' W 007°19'710.5
2017-Oct-10 03:21N 36°13' W 007°10'307 9.2
2017-Oct-08 17:53N 36°36' W 000°50'410.3
2017-Oct-08 17:28N 36°36' W 000°44'510.5
2017-Oct-08 16:59N 36°37' W 000°38'  

Dump ship's entire track history